createdAt,value
2023-02-21T00:01:27.390Z,4.00
2023-02-21T00:06:31.073Z,3.83
2023-02-21T00:11:36.382Z,3.35
2023-02-21T00:16:40.098Z,3.58
2023-02-21T00:21:43.753Z,3.03
2023-02-21T00:26:49.602Z,3.60
2023-02-21T00:31:53.292Z,2.78
2023-02-21T00:36:56.935Z,2.90
2023-02-21T00:42:02.263Z,3.03
2023-02-21T00:47:05.887Z,3.95
2023-02-21T00:52:09.523Z,4.10
2023-02-21T00:57:15.005Z,3.60
2023-02-21T01:07:21.580Z,3.28
2023-02-21T01:12:26.901Z,3.50
2023-02-21T01:17:30.524Z,3.28
2023-02-21T01:22:34.297Z,3.70
2023-02-21T01:27:39.630Z,3.50
2023-02-21T01:32:43.254Z,3.30
2023-02-21T01:37:46.961Z,3.28
2023-02-21T01:42:52.211Z,3.53
2023-02-21T01:47:55.858Z,3.80
2023-02-21T01:53:00.432Z,4.22
2023-02-21T01:58:05.754Z,4.05
2023-02-21T02:03:11.093Z,3.83
2023-02-21T02:08:17.222Z,3.65
2023-02-21T02:13:32.594Z,4.22
2023-02-21T02:19:11.040Z,3.70
2023-02-21T02:24:44.380Z,4.35
2023-02-21T02:30:14.067Z,3.83
2023-02-21T02:35:23.282Z,4.30
2023-02-21T02:40:33.696Z,4.45
2023-02-21T02:45:41.335Z,4.70
2023-02-21T02:50:49.592Z,4.15
2023-02-21T02:55:57.225Z,4.22
2023-02-21T03:01:15.602Z,4.43
2023-02-21T03:06:29.963Z,3.75
2023-02-21T03:11:33.682Z,5.20
2023-02-21T03:16:42.534Z,5.22
2023-02-21T03:21:52.892Z,4.93
2023-02-21T03:27:00.276Z,4.82
2023-02-21T03:32:09.822Z,5.00
2023-02-21T03:37:23.280Z,4.70
2023-02-21T03:42:26.977Z,4.78
2023-02-21T03:47:30.621Z,3.80
2023-02-21T03:52:36.134Z,3.40
2023-02-21T03:57:39.760Z,3.88
2023-02-21T04:02:43.586Z,4.00
2023-02-21T04:07:49.816Z,3.60
2023-02-21T04:12:53.485Z,3.70
2023-02-21T04:17:57.142Z,3.80
2023-02-21T04:23:03.825Z,3.88
2023-02-21T04:28:07.605Z,4.00
2023-02-21T04:33:11.276Z,3.33
2023-02-21T04:38:16.631Z,3.55
2023-02-21T04:43:20.391Z,3.00
2023-02-21T04:48:24.173Z,3.47
2023-02-21T04:53:29.526Z,3.30
2023-02-21T04:58:44.203Z,3.40
2023-02-21T05:03:48.958Z,2.93
2023-02-21T05:08:54.543Z,3.10
2023-02-21T05:13:58.191Z,3.10
2023-02-21T05:19:01.923Z,3.30
2023-02-21T05:24:08.068Z,2.80
2023-02-21T05:29:11.725Z,3.03
2023-02-21T05:34:16.422Z,2.90
2023-02-21T05:39:21.771Z,3.25
2023-02-21T05:44:25.430Z,3.07
2023-02-21T05:49:29.324Z,2.97
2023-02-21T05:54:34.671Z,3.15
2023-02-21T05:59:40.436Z,2.78
2023-02-21T06:04:44.040Z,3.40
2023-02-21T06:09:49.374Z,3.63
2023-02-21T06:14:53.049Z,3.83
2023-02-21T06:19:57.696Z,3.25
2023-02-21T06:25:03.006Z,3.40
2023-02-21T06:30:07.441Z,3.67
2023-02-21T06:35:11.196Z,3.50
2023-02-21T06:40:16.699Z,3.83
2023-02-21T06:45:20.398Z,3.17
2023-02-21T06:50:24.093Z,3.33
2023-02-21T06:55:29.369Z,3.63
2023-02-21T07:00:33.068Z,3.43
2023-02-21T07:05:36.737Z,3.50
2023-02-21T07:10:42.094Z,3.33
2023-02-21T07:15:45.822Z,3.67
2023-02-21T07:20:49.454Z,3.35
2023-02-21T07:25:54.786Z,3.70
2023-02-21T07:30:58.469Z,3.70
2023-02-21T07:36:02.112Z,3.30
2023-02-21T07:41:07.467Z,4.13
2023-02-21T07:46:12.931Z,3.80
2023-02-21T07:51:16.861Z,3.47
2023-02-21T07:56:22.380Z,3.70
2023-02-21T08:01:27.384Z,3.47
2023-02-21T08:06:31.062Z,3.63
2023-02-21T08:11:37.090Z,3.35
2023-02-21T08:16:40.756Z,3.38
2023-02-21T08:21:46.524Z,3.58
2023-02-21T08:26:51.787Z,3.55
2023-02-21T08:31:55.474Z,3.80
2023-02-21T08:36:59.181Z,3.65
2023-02-21T08:42:05.894Z,3.35
2023-02-21T08:47:09.580Z,3.50
2023-02-21T08:52:13.216Z,3.53
2023-02-21T08:57:18.542Z,3.50
2023-02-21T09:02:24.822Z,3.30
2023-02-21T09:12:34.308Z,3.60
2023-02-21T09:22:43.338Z,4.15
2023-02-21T09:27:48.648Z,3.25
2023-02-21T09:32:52.853Z,3.22
2023-02-21T09:37:56.573Z,3.75
2023-02-21T09:43:03.599Z,3.30
2023-02-21T09:48:13.365Z,3.50
2023-02-21T09:53:21.436Z,3.40
2023-02-21T09:58:26.917Z,3.85
2023-02-21T10:03:44.796Z,3.50
2023-02-21T10:14:32.514Z,3.22
2023-02-21T10:19:38.519Z,3.70
2023-02-21T10:24:42.825Z,3.17
2023-02-21T10:29:52.904Z,3.45
2023-02-21T10:34:57.769Z,3.15
2023-02-21T10:40:06.227Z,3.42
2023-02-21T10:45:17.291Z,3.25
2023-02-21T10:50:39.162Z,3.05
2023-02-21T10:55:42.828Z,3.30
2023-02-21T11:00:48.597Z,3.20
2023-02-21T11:05:53.406Z,3.63
2023-02-21T11:10:57.062Z,3.50
2023-02-21T11:16:13.093Z,3.20
2023-02-21T11:21:19.049Z,3.25
2023-02-21T11:26:22.929Z,3.38
2023-02-21T11:31:31.906Z,3.30
2023-02-21T11:36:37.740Z,3.35
2023-02-21T11:41:47.965Z,3.75
2023-02-21T11:47:02.307Z,3.65
2023-02-21T11:52:10.548Z,3.65
2023-02-21T11:57:20.854Z,3.67
2023-02-21T12:02:52.472Z,3.63
2023-02-21T12:08:28.822Z,3.80
2023-02-21T12:13:46.552Z,3.53
2023-02-21T12:19:07.927Z,3.75
2023-02-21T12:24:25.369Z,4.10
2023-02-21T12:29:50.248Z,4.22
2023-02-21T12:35:14.480Z,4.60
2023-02-21T12:40:35.386Z,4.30
2023-02-21T12:45:53.476Z,4.13
2023-02-21T12:51:04.593Z,4.05
2023-02-21T12:56:12.886Z,4.60
2023-02-21T13:01:21.689Z,4.72
2023-02-21T13:06:33.761Z,4.50
2023-02-21T13:11:43.065Z,4.57
2023-02-21T13:16:47.087Z,5.32
2023-02-21T13:22:11.521Z,5.00
2023-02-21T13:27:55.936Z,4.82
2023-02-21T13:33:01.521Z,4.88
2023-02-21T13:38:11.523Z,4.87
2023-02-21T13:43:22.072Z,4.80
2023-02-21T13:48:28.628Z,5.13
2023-02-21T13:53:54.452Z,4.70
2023-02-21T13:59:34.829Z,4.80
2023-02-21T14:05:04.380Z,4.18
2023-02-21T14:10:26.359Z,4.97
2023-02-21T14:15:48.556Z,5.40
2023-02-21T14:20:54.407Z,4.30
2023-02-21T14:26:03.191Z,3.67
2023-02-21T14:31:06.852Z,3.30
2023-02-21T14:36:11.882Z,3.55
2023-02-21T14:41:36.806Z,3.35
2023-02-21T14:47:11.186Z,2.83
2023-02-21T14:52:38.261Z,2.60
2023-02-21T14:58:27.112Z,3.15
2023-02-21T15:03:36.055Z,2.83
2023-02-21T15:08:44.832Z,2.50
2023-02-21T15:14:10.093Z,3.03
2023-02-21T15:19:26.495Z,2.67
2023-02-21T15:24:30.146Z,3.28
2023-02-21T15:29:38.777Z,3.30
2023-02-21T15:34:46.591Z,3.40
2023-02-21T15:39:55.151Z,2.60
2023-02-21T15:45:04.035Z,3.00
2023-02-21T15:50:14.391Z,3.40
2023-02-21T15:55:30.076Z,3.08
2023-02-21T16:00:36.517Z,2.90
2023-02-21T16:05:40.283Z,3.13
2023-02-21T16:10:44.534Z,3.10
2023-02-21T16:15:50.601Z,2.65
2023-02-21T16:21:01.493Z,3.08
2023-02-21T16:26:21.734Z,2.70
2023-02-21T16:31:30.182Z,2.72
2023-02-21T16:36:34.193Z,2.53
2023-02-21T16:41:37.826Z,3.10
2023-02-21T16:46:44.595Z,2.88
2023-02-21T16:51:48.904Z,2.70
2023-02-21T16:56:54.151Z,2.58
2023-02-21T17:01:59.472Z,2.23
2023-02-21T17:07:06.310Z,2.67
2023-02-21T17:12:12.912Z,2.00
2023-02-21T17:17:18.252Z,2.25
2023-02-21T17:22:21.859Z,2.60
2023-02-21T17:27:25.617Z,1.90
2023-02-21T17:32:31.003Z,2.20
2023-02-21T17:37:34.664Z,1.97
2023-02-21T17:42:38.283Z,2.10
2023-02-21T17:47:43.529Z,1.80
2023-02-21T17:52:47.485Z,2.10
2023-02-21T17:57:51.121Z,1.80
2023-02-21T18:02:56.769Z,2.13
2023-02-21T18:08:00.557Z,2.30
2023-02-21T18:13:04.236Z,1.60
2023-02-21T18:18:09.580Z,1.83
2023-02-21T18:23:13.554Z,1.50
2023-02-21T18:28:17.187Z,1.38
2023-02-21T18:33:24.373Z,1.40
2023-02-21T18:38:28.771Z,1.80
2023-02-21T18:43:32.402Z,1.33
2023-02-21T18:48:38.081Z,1.42
2023-02-21T18:53:43.991Z,1.73
2023-02-21T18:58:48.040Z,1.50
2023-02-21T19:03:54.882Z,1.40
2023-02-21T19:08:58.857Z,1.50
2023-02-21T19:14:02.550Z,1.40
2023-02-21T19:19:07.954Z,1.30
2023-02-21T19:24:11.598Z,1.58
2023-02-21T19:29:15.227Z,1.65
2023-02-21T19:34:20.566Z,1.70
2023-02-21T19:39:24.299Z,2.30
2023-02-21T19:44:27.978Z,1.90
2023-02-21T19:49:33.315Z,2.03
2023-02-21T19:54:36.917Z,2.17
2023-02-21T19:59:40.577Z,2.97
2023-02-21T20:04:46.032Z,2.40
2023-02-21T20:09:49.725Z,2.08
2023-02-21T20:14:53.549Z,2.30
2023-02-21T20:19:58.879Z,2.50
2023-02-21T20:25:02.765Z,2.50
2023-02-21T20:30:07.310Z,2.47
2023-02-21T20:35:13.051Z,2.35
2023-02-21T20:40:16.923Z,2.33
2023-02-21T20:45:20.612Z,2.83
2023-02-21T20:50:26.039Z,2.65
2023-02-21T20:55:29.732Z,2.47
2023-02-21T21:00:33.628Z,3.08
2023-02-21T21:05:38.938Z,3.40
2023-02-21T21:10:42.617Z,3.50
2023-02-21T21:15:46.425Z,2.90
2023-02-21T21:20:51.761Z,3.47
2023-02-21T21:25:55.386Z,3.60
2023-02-21T21:30:59.295Z,3.38
2023-02-21T21:36:04.846Z,3.72
2023-02-21T21:41:09.133Z,3.47
2023-02-21T21:46:14.602Z,3.65
2023-02-21T21:51:19.947Z,3.65
2023-02-21T21:56:24.652Z,2.87
2023-02-21T22:01:28.278Z,3.47
2023-02-21T22:06:33.547Z,2.85
2023-02-21T22:11:37.598Z,3.10
2023-02-21T22:16:44.228Z,2.58
2023-02-21T22:21:50.128Z,2.88
2023-02-21T22:26:55.048Z,3.22
2023-02-21T22:31:58.729Z,2.50
2023-02-21T22:37:04.095Z,2.33
2023-02-21T22:42:07.833Z,2.33
2023-02-21T22:47:12.306Z,2.53
2023-02-21T22:52:17.609Z,2.63
2023-02-21T22:57:21.288Z,2.90
2023-02-21T23:02:25.333Z,3.00
2023-02-21T23:07:31.616Z,3.55
2023-02-21T23:12:35.491Z,3.22
2023-02-21T23:17:39.152Z,2.92
2023-02-21T23:22:44.878Z,2.50
2023-02-21T23:27:50.509Z,2.70
2023-02-21T23:32:56.262Z,2.80
2023-02-21T23:38:01.549Z,2.58
2023-02-21T23:43:05.424Z,2.00
2023-02-21T23:48:10.212Z,1.95
2023-02-21T23:53:17.570Z,2.28
2023-02-21T23:58:21.224Z,2.55
